Ballymena, United Kingdom
Current Conditions -  °F | °C
As of 10:50 PM on Wednesday 22 Oct 2014 (Local Time) from EGAA Reporting Station
Broken Clouds Broken Clouds  
Wind Chill: 52°   Ceiling: 1700
Heat Index: 52°   Visibility: 6mi
Dew Point: 48°   Wind: 12mph
Humidity: 88%   Direction: 220°SW
Pressure: 29.97"   Gusts: NA
Location:  54.86°N, 6.28°W
Report Text: EGAA 222150Z 22010KT 9999 BKN017 BKN023 11/09 Q1015
Loading
Personal Weather Stations






























Interactive Weather Map
Tropical Storm Tracking
New forecast layout! Learn more

10-Day Weather Forecast

Advertisements
Track Severe Weather on mobile